createdAt,value
2018-11-25T00:00:35.920Z,19.00
2018-11-25T00:03:04.482Z,17.07
2018-11-25T00:05:33.086Z,18.70
2018-11-25T00:08:01.543Z,18.90
2018-11-25T00:10:29.987Z,17.77
2018-11-25T00:12:58.437Z,19.53
2018-11-25T00:15:26.990Z,18.37
2018-11-25T00:17:55.449Z,18.80
2018-11-25T00:20:23.916Z,20.50
2018-11-25T00:22:52.597Z,19.53
2018-11-25T00:25:21.042Z,21.80
2018-11-25T00:27:49.533Z,20.93
2018-11-25T00:30:17.974Z,22.40
2018-11-25T00:32:46.634Z,23.37
2018-11-25T00:35:16.155Z,23.07
2018-11-25T00:37:48.380Z,21.57
2018-11-25T00:40:14.405Z,23.00
2018-11-25T00:42:43.325Z,24.27
2018-11-25T00:45:13.182Z,23.50
2018-11-25T00:47:41.723Z,25.43
2018-11-25T00:50:11.652Z,25.30
2018-11-25T00:52:40.112Z,28.10
2018-11-25T00:55:10.602Z,30.20
2018-11-25T00:57:39.037Z,28.63
2018-11-25T01:00:12.790Z,28.57
2018-11-25T01:02:41.278Z,31.13
2018-11-25T01:05:10.550Z,29.40
2018-11-25T01:07:39.188Z,32.00
2018-11-25T01:10:12.018Z,28.23
2018-11-25T01:12:40.486Z,30.00
2018-11-25T01:15:13.397Z,31.17
2018-11-25T01:17:42.349Z,35.57
2018-11-25T01:20:12.241Z,34.50
2018-11-25T01:22:40.667Z,32.97
2018-11-25T01:25:10.263Z,34.93
2018-11-25T01:27:38.746Z,34.50
2018-11-25T01:30:10.167Z,34.70
2018-11-25T01:32:38.627Z,35.57
2018-11-25T01:35:08.234Z,33.27
2018-11-25T01:37:36.699Z,30.87
2018-11-25T01:40:09.549Z,28.87
2018-11-25T01:42:38.009Z,26.53
2018-11-25T01:45:08.227Z,35.20
2018-11-25T01:47:36.664Z,34.83
2018-11-25T01:50:06.370Z,32.93
2018-11-25T01:52:34.813Z,32.60
2018-11-25T01:55:03.337Z,35.20
2018-11-25T01:57:31.768Z,32.53
2018-11-25T02:00:00.227Z,31.20
2018-11-25T02:02:28.751Z,31.50
2018-11-25T02:04:57.203Z,34.67
2018-11-25T02:07:26.136Z,26.13
2018-11-25T02:09:54.101Z,29.07
2018-11-25T02:12:22.878Z,34.97
2018-11-25T02:14:51.306Z,31.63
2018-11-25T02:17:19.886Z,24.73
2018-11-25T02:19:48.361Z,31.40
2018-11-25T02:22:16.811Z,29.87
2018-11-25T02:24:45.265Z,33.40
2018-11-25T02:27:13.694Z,26.13
2018-11-25T02:29:42.130Z,29.90
2018-11-25T02:32:10.567Z,23.43
2018-11-25T02:34:39.095Z,24.93
2018-11-25T02:37:07.549Z,32.37
2018-11-25T02:39:35.949Z,27.57
2018-11-25T02:42:04.417Z,26.40
2018-11-25T02:44:32.898Z,29.40
2018-11-25T02:47:01.966Z,26.20
2018-11-25T02:49:30.395Z,29.77
2018-11-25T02:51:58.830Z,27.27
2018-11-25T02:54:27.288Z,30.40
2018-11-25T02:56:55.717Z,31.10
2018-11-25T02:59:24.575Z,28.57
2018-11-25T03:01:53.007Z,26.27
2018-11-25T03:04:21.458Z,27.60
2018-11-25T03:06:49.955Z,27.83
2018-11-25T03:09:18.826Z,24.13
2018-11-25T03:11:47.265Z,27.13
2018-11-25T03:14:15.703Z,29.87
2018-11-25T03:16:44.971Z,27.23
2018-11-25T03:19:14.091Z,28.60
2018-11-25T03:21:42.576Z,29.37
2018-11-25T03:24:11.002Z,29.33
2018-11-25T03:26:39.441Z,29.17
2018-11-25T03:29:07.962Z,28.83
2018-11-25T03:31:36.861Z,30.73
2018-11-25T03:34:06.328Z,31.03
2018-11-25T03:36:34.755Z,31.00
2018-11-25T03:39:03.374Z,28.53
2018-11-25T03:41:31.800Z,29.67
2018-11-25T03:44:00.266Z,31.17
2018-11-25T03:46:28.696Z,30.83
2018-11-25T03:48:57.131Z,30.50
2018-11-25T03:51:25.586Z,29.47
2018-11-25T03:53:54.095Z,33.07
2018-11-25T03:56:22.555Z,32.00
2018-11-25T03:58:50.976Z,32.57
2018-11-25T04:01:19.442Z,33.37
2018-11-25T04:03:47.923Z,29.73
2018-11-25T04:06:16.370Z,32.23
2018-11-25T04:08:44.823Z,30.63
2018-11-25T04:11:13.268Z,29.13
2018-11-25T04:13:41.698Z,27.77
2018-11-25T04:16:10.197Z,30.00
2018-11-25T04:18:38.674Z,30.17
2018-11-25T04:21:07.173Z,35.13
2018-11-25T04:23:35.604Z,37.50
2018-11-25T04:26:04.099Z,41.13
2018-11-25T04:28:32.562Z,43.90
2018-11-25T04:31:01.016Z,41.57
2018-11-25T04:33:29.446Z,37.23
2018-11-25T04:35:57.899Z,24.40
2018-11-25T04:38:26.331Z,36.77
2018-11-25T04:40:54.864Z,36.77
2018-11-25T04:43:23.350Z,33.30
2018-11-25T04:45:51.769Z,34.53
2018-11-25T04:48:20.219Z,36.33
2018-11-25T04:50:48.638Z,38.33
2018-11-25T04:53:17.106Z,36.33
2018-11-25T04:55:45.510Z,34.57
2018-11-25T04:58:14.044Z,32.77
2018-11-25T05:00:42.529Z,40.40
2018-11-25T05:03:10.987Z,46.80
2018-11-25T05:05:39.450Z,37.57
2018-11-25T05:08:07.928Z,47.80
2018-11-25T05:10:36.419Z,41.70
2018-11-25T05:13:06.079Z,42.80
2018-11-25T05:15:34.502Z,51.73
2018-11-25T05:18:02.966Z,46.57
2018-11-25T05:20:31.419Z,51.23
2018-11-25T05:22:59.844Z,55.30
2018-11-25T05:25:28.297Z,53.23
2018-11-25T05:27:56.751Z,58.07
2018-11-25T05:30:25.217Z,53.50
2018-11-25T05:32:53.710Z,41.97
2018-11-25T05:35:22.400Z,40.77
2018-11-25T05:37:50.877Z,36.57
2018-11-25T05:40:19.428Z,38.27
2018-11-25T05:42:47.892Z,41.70
2018-11-25T05:45:18.192Z,41.90
2018-11-25T05:47:46.667Z,41.07
2018-11-25T05:50:17.030Z,37.37
2018-11-25T05:52:45.614Z,37.10
2018-11-25T05:55:14.398Z,33.87
2018-11-25T05:57:42.987Z,36.43
2018-11-25T06:00:15.591Z,35.67
2018-11-25T06:02:44.145Z,34.73
2018-11-25T06:05:12.626Z,33.90
2018-11-25T06:07:41.231Z,37.57
2018-11-25T06:10:11.850Z,38.80
2018-11-25T06:12:40.392Z,33.23
2018-11-25T06:15:12.154Z,39.60
2018-11-25T06:17:40.636Z,36.50
2018-11-25T06:20:15.151Z,35.47
2018-11-25T06:22:43.684Z,35.17
2018-11-25T06:25:16.069Z,37.07
2018-11-25T06:27:44.526Z,40.13
2018-11-25T06:30:14.226Z,35.60
2018-11-25T06:32:42.726Z,36.23
2018-11-25T06:35:12.274Z,32.97
2018-11-25T06:37:40.713Z,34.57
2018-11-25T06:40:11.341Z,34.97
2018-11-25T06:42:40.593Z,35.30
2018-11-25T06:45:18.178Z,36.27
2018-11-25T06:47:46.634Z,40.20
2018-11-25T06:50:15.090Z,37.90
2018-11-25T06:52:43.528Z,43.83
2018-11-25T06:55:12.816Z,42.67
2018-11-25T06:57:41.280Z,44.13
2018-11-25T07:00:16.963Z,45.20
2018-11-25T07:02:45.503Z,37.47
2018-11-25T07:05:14.003Z,30.47
2018-11-25T07:07:42.446Z,31.50
2018-11-25T07:10:14.202Z,34.97
2018-11-25T07:12:42.647Z,35.13
2018-11-25T07:15:16.039Z,36.43
2018-11-25T07:17:44.547Z,35.63
2018-11-25T07:20:17.004Z,41.67
2018-11-25T07:22:45.502Z,36.23
2018-11-25T07:25:18.397Z,37.50
2018-11-25T07:27:46.863Z,38.40
2018-11-25T07:30:19.731Z,42.20
2018-11-25T07:32:48.217Z,43.63
2018-11-25T07:35:16.713Z,48.00
2018-11-25T07:37:45.152Z,47.87
2018-11-25T07:40:14.682Z,38.93
2018-11-25T07:42:43.215Z,44.70
2018-11-25T07:45:13.394Z,53.63
2018-11-25T07:47:41.855Z,44.30
2018-11-25T07:50:11.397Z,43.80
2018-11-25T07:52:40.142Z,40.93
2018-11-25T07:55:10.800Z,44.60
2018-11-25T07:57:39.603Z,45.40
2018-11-25T08:00:23.873Z,48.23
2018-11-25T08:02:52.370Z,51.50
2018-11-25T08:05:23.849Z,44.67
2018-11-25T08:07:52.331Z,44.63
2018-11-25T08:10:20.803Z,47.20
2018-11-25T08:12:49.295Z,44.47
2018-11-25T08:15:18.791Z,41.27
2018-11-25T08:17:47.371Z,45.13
2018-11-25T08:20:17.853Z,41.73
2018-11-25T08:22:46.376Z,41.63
2018-11-25T08:25:17.492Z,39.30
2018-11-25T08:27:46.091Z,42.47
2018-11-25T08:30:21.943Z,44.73
2018-11-25T08:32:50.950Z,43.00
2018-11-25T08:35:20.234Z,36.07
2018-11-25T08:37:48.746Z,37.60
2018-11-25T08:40:18.247Z,36.17
2018-11-25T08:42:46.690Z,48.30
2018-11-25T08:45:15.770Z,41.17
2018-11-25T08:47:44.516Z,42.20
2018-11-25T08:50:15.040Z,43.00
2018-11-25T08:52:44.532Z,37.23
2018-11-25T08:55:15.122Z,47.43
2018-11-25T08:57:43.755Z,39.40
2018-11-25T09:00:15.390Z,47.10
2018-11-25T09:02:43.883Z,44.67
2018-11-25T09:05:14.503Z,40.43
2018-11-25T09:07:43.195Z,40.97
2018-11-25T09:10:16.814Z,42.43
2018-11-25T09:12:55.320Z,30.97
2018-11-25T09:15:18.344Z,34.07
2018-11-25T09:17:46.815Z,34.43
2018-11-25T09:20:16.447Z,35.73
2018-11-25T09:22:44.972Z,33.27
2018-11-25T09:25:15.742Z,34.87
2018-11-25T09:27:44.694Z,38.03
2018-11-25T09:30:14.531Z,36.53
2018-11-25T09:32:42.973Z,38.17
2018-11-25T09:35:12.798Z,36.30
2018-11-25T09:37:41.229Z,34.10
2018-11-25T09:40:12.066Z,42.07
2018-11-25T09:42:40.514Z,43.27
2018-11-25T09:45:14.359Z,45.53
2018-11-25T09:47:43.222Z,48.27
2018-11-25T09:50:12.939Z,44.63
2018-11-25T09:52:41.404Z,45.33
2018-11-25T09:55:25.115Z,39.77
2018-11-25T09:58:01.090Z,39.27
2018-11-25T10:00:31.487Z,37.73
2018-11-25T10:02:59.923Z,48.67
2018-11-25T10:05:28.418Z,46.33
2018-11-25T10:08:03.409Z,48.23
2018-11-25T10:10:31.854Z,52.30
2018-11-25T10:13:00.297Z,48.80
2018-11-25T10:15:29.594Z,59.07
2018-11-25T10:17:59.754Z,51.03
2018-11-25T10:20:28.679Z,50.53
2018-11-25T10:22:57.154Z,50.27
2018-11-25T10:25:25.622Z,60.90
2018-11-25T10:27:54.117Z,54.80
2018-11-25T10:30:24.739Z,54.07
2018-11-25T10:33:01.888Z,57.70
2018-11-25T10:35:30.401Z,52.87
2018-11-25T10:38:00.080Z,55.97
2018-11-25T10:40:28.840Z,46.23
2018-11-25T10:42:57.285Z,46.73
2018-11-25T10:45:26.808Z,51.93
2018-11-25T10:47:56.035Z,51.33
2018-11-25T10:50:24.511Z,52.03
2018-11-25T10:52:52.990Z,56.53
2018-11-25T10:55:22.203Z,46.70
2018-11-25T10:57:51.634Z,57.97
2018-11-25T11:00:29.663Z,51.63
2018-11-25T11:03:03.523Z,53.50
2018-11-25T11:05:37.363Z,58.33
2018-11-25T11:08:07.096Z,58.87
2018-11-25T11:10:35.598Z,58.80
2018-11-25T11:13:04.137Z,47.20
2018-11-25T11:15:32.601Z,55.20
2018-11-25T11:18:01.052Z,53.97
2018-11-25T11:20:29.495Z,46.23
2018-11-25T11:22:59.076Z,37.90
2018-11-25T11:25:27.556Z,41.97
2018-11-25T11:27:56.015Z,37.27
2018-11-25T11:30:24.459Z,40.67
2018-11-25T11:32:52.915Z,39.00
2018-11-25T11:35:21.528Z,36.33
2018-11-25T11:37:50.001Z,39.70
2018-11-25T11:40:18.445Z,39.50
2018-11-25T11:42:46.906Z,37.67
2018-11-25T11:45:15.865Z,37.77
2018-11-25T11:47:45.387Z,38.13
2018-11-25T11:50:15.804Z,35.90
2018-11-25T11:52:44.265Z,35.47
2018-11-25T11:55:14.007Z,35.03
2018-11-25T11:57:42.989Z,37.90
2018-11-25T12:00:14.003Z,38.80
2018-11-25T12:02:42.552Z,37.43
2018-11-25T12:05:11.021Z,38.20
2018-11-25T12:07:39.510Z,34.37
2018-11-25T12:10:13.394Z,34.03
2018-11-25T12:12:41.835Z,37.57
2018-11-25T12:15:14.028Z,31.83
2018-11-25T12:17:42.466Z,35.90
2018-11-25T12:20:11.410Z,33.03
2018-11-25T12:22:40.079Z,33.03
2018-11-25T12:25:11.151Z,33.90
2018-11-25T12:27:39.629Z,36.97
2018-11-25T12:30:11.616Z,32.53
2018-11-25T12:32:40.420Z,34.00
2018-11-25T12:35:10.090Z,33.97
2018-11-25T12:37:38.527Z,33.07
2018-11-25T12:40:11.570Z,32.57
2018-11-25T12:42:40.570Z,33.47
2018-11-25T12:45:10.786Z,32.80
2018-11-25T12:47:39.288Z,34.40
2018-11-25T12:50:10.679Z,32.13
2018-11-25T12:52:39.162Z,31.67
2018-11-25T12:55:10.155Z,32.10
2018-11-25T12:57:38.619Z,31.77
2018-11-25T13:00:17.747Z,33.33
2018-11-25T13:02:46.211Z,32.67
2018-11-25T13:05:14.686Z,31.80
2018-11-25T13:07:43.139Z,32.07
2018-11-25T13:10:11.592Z,33.40
2018-11-25T13:12:40.067Z,32.73
2018-11-25T13:15:09.301Z,31.37
2018-11-25T13:17:37.774Z,31.20
2018-11-25T13:20:10.003Z,33.90
2018-11-25T13:22:39.020Z,31.40
2018-11-25T13:25:09.105Z,35.43
2018-11-25T13:27:37.672Z,30.23
2018-11-25T13:30:21.419Z,24.23
2018-11-25T13:32:51.187Z,29.57
2018-11-25T13:35:19.700Z,28.17
2018-11-25T13:37:48.185Z,28.00
2018-11-25T13:40:17.309Z,21.67
2018-11-25T13:42:45.766Z,28.67
2018-11-25T13:45:14.331Z,28.20
2018-11-25T13:47:42.783Z,29.80
2018-11-25T13:50:12.254Z,28.57
2018-11-25T13:52:40.749Z,29.50
2018-11-25T13:55:10.931Z,32.67
2018-11-25T13:57:39.423Z,33.37
2018-11-25T14:00:43.903Z,34.20
2018-11-25T14:03:17.267Z,32.30
2018-11-25T14:05:52.638Z,28.80
2018-11-25T14:08:14.343Z,33.20
2018-11-25T14:10:42.910Z,33.10
2018-11-25T14:13:11.445Z,33.73
2018-11-25T14:15:39.958Z,32.40
2018-11-25T14:18:08.394Z,34.47
2018-11-25T14:20:36.851Z,36.23
2018-11-25T14:23:05.625Z,34.90
2018-11-25T14:25:34.063Z,35.80
2018-11-25T14:28:06.049Z,38.73
2018-11-25T14:30:34.515Z,37.93
2018-11-25T14:33:02.977Z,35.90
2018-11-25T14:35:31.532Z,39.43
2018-11-25T14:37:59.958Z,39.87
2018-11-25T14:40:28.403Z,40.97
2018-11-25T14:42:56.835Z,38.80
2018-11-25T14:45:25.256Z,40.23
2018-11-25T14:47:53.681Z,41.97
2018-11-25T14:50:22.658Z,41.53
2018-11-25T14:52:52.306Z,39.47
2018-11-25T14:55:21.027Z,43.93
2018-11-25T14:57:49.634Z,43.40
2018-11-25T15:00:21.876Z,45.90
2018-11-25T15:02:58.095Z,45.13
2018-11-25T15:05:33.508Z,46.07
2018-11-25T15:08:01.990Z,52.43
2018-11-25T15:10:30.410Z,50.37
2018-11-25T15:12:58.890Z,46.37
2018-11-25T15:15:27.343Z,48.70
2018-11-25T15:17:55.794Z,54.20
2018-11-25T15:20:24.259Z,57.33
2018-11-25T15:22:54.434Z,57.00
2018-11-25T15:25:25.101Z,55.43
2018-11-25T15:27:53.763Z,66.60
2018-11-25T15:30:22.216Z,65.03
2018-11-25T15:32:50.674Z,67.00
2018-11-25T15:35:19.100Z,61.90
2018-11-25T15:37:49.153Z,54.27
2018-11-25T15:40:28.106Z,62.10
2018-11-25T15:42:56.605Z,60.10
2018-11-25T15:45:25.171Z,56.30
2018-11-25T15:47:56.047Z,55.77
2018-11-25T15:50:26.239Z,55.07
2018-11-25T15:52:55.638Z,52.70
2018-11-25T15:55:24.616Z,48.67
2018-11-25T15:57:53.350Z,64.83
2018-11-25T16:00:23.144Z,56.67
2018-11-25T16:02:51.667Z,67.57
2018-11-25T16:05:24.441Z,59.20
2018-11-25T16:07:52.907Z,65.13
2018-11-25T16:10:21.853Z,63.53
2018-11-25T16:12:51.158Z,72.77
2018-11-25T16:15:21.089Z,69.37
2018-11-25T16:17:49.567Z,64.93
2018-11-25T16:20:25.276Z,61.40
2018-11-25T16:22:56.314Z,61.30
2018-11-25T16:25:33.855Z,64.60
2018-11-25T16:28:08.452Z,66.67
2018-11-25T16:30:37.131Z,64.00
2018-11-25T16:33:05.622Z,66.20
2018-11-25T16:35:34.068Z,64.80
2018-11-25T16:38:02.492Z,62.93
2018-11-25T16:40:30.955Z,60.20
2018-11-25T16:42:59.403Z,69.93
2018-11-25T16:45:27.824Z,69.70
2018-11-25T16:47:56.254Z,60.83
2018-11-25T16:50:25.408Z,73.70
2018-11-25T16:52:53.239Z,67.93
2018-11-25T16:55:21.699Z,74.67
2018-11-25T16:57:50.168Z,68.37
2018-11-25T17:00:19.567Z,75.50
2018-11-25T17:02:48.667Z,71.73
2018-11-25T17:05:25.734Z,80.63
2018-11-25T17:07:56.327Z,72.97
2018-11-25T17:10:24.826Z,62.83
2018-11-25T17:12:53.322Z,72.63
2018-11-25T17:15:23.329Z,67.03
2018-11-25T17:17:51.818Z,69.33
2018-11-25T17:20:20.290Z,72.63
2018-11-25T17:22:48.786Z,67.67
2018-11-25T17:25:17.283Z,57.37
2018-11-25T17:27:45.777Z,70.00
2018-11-25T17:30:21.203Z,66.17
2018-11-25T17:32:49.778Z,68.73
2018-11-25T17:35:23.984Z,63.97
2018-11-25T17:37:52.443Z,70.23
2018-11-25T17:40:20.912Z,75.13
2018-11-25T17:42:49.935Z,62.03
2018-11-25T17:45:18.449Z,66.63
2018-11-25T17:47:46.956Z,73.97
2018-11-25T17:50:18.968Z,59.33
2018-11-25T17:52:48.285Z,72.47
2018-11-25T17:55:17.460Z,68.23
2018-11-25T17:57:45.958Z,53.07
2018-11-25T18:00:19.091Z,56.80
2018-11-25T18:02:47.562Z,65.00
2018-11-25T18:05:16.075Z,63.53
2018-11-25T18:07:44.569Z,55.90
2018-11-25T18:10:13.748Z,53.60
2018-11-25T18:12:42.438Z,56.27
2018-11-25T18:15:13.876Z,45.20
2018-11-25T18:17:45.057Z,53.97
2018-11-25T18:20:13.667Z,54.43
2018-11-25T18:22:46.363Z,50.33
2018-11-25T18:25:14.824Z,51.70
2018-11-25T18:27:43.351Z,50.60
2018-11-25T18:30:13.503Z,51.63
2018-11-25T18:32:42.731Z,46.63
2018-11-25T18:35:11.248Z,40.40
2018-11-25T18:37:39.760Z,48.73
2018-11-25T18:40:11.329Z,39.80
2018-11-25T18:42:40.178Z,40.30
2018-11-25T18:45:15.028Z,44.80
2018-11-25T18:47:46.013Z,41.27
2018-11-25T18:50:15.552Z,39.67
2018-11-25T18:52:45.730Z,42.07
2018-11-25T18:55:13.038Z,38.37
2018-11-25T18:57:41.492Z,34.83
2018-11-25T19:00:14.010Z,31.80
2018-11-25T19:02:44.389Z,29.83
2018-11-25T19:05:12.920Z,35.00
2018-11-25T19:07:41.363Z,31.00
2018-11-25T19:10:15.156Z,32.60
2018-11-25T19:12:44.171Z,31.70
2018-11-25T19:15:14.572Z,36.23
2018-11-25T19:17:43.031Z,34.93
2018-11-25T19:20:20.695Z,32.23
2018-11-25T19:22:49.162Z,34.90
2018-11-25T19:25:17.930Z,32.40
2018-11-25T19:27:47.274Z,33.63
2018-11-25T19:30:16.216Z,33.70
2018-11-25T19:32:46.555Z,35.10
2018-11-25T19:35:17.896Z,34.63
2018-11-25T19:37:47.204Z,36.93
2018-11-25T19:40:17.783Z,37.90
2018-11-25T19:42:46.234Z,37.03
2018-11-25T19:45:18.011Z,36.20
2018-11-25T19:47:46.446Z,32.60
2018-11-25T19:50:17.191Z,38.07
2018-11-25T19:52:45.678Z,34.87
2018-11-25T19:55:14.398Z,37.93
2018-11-25T19:57:42.834Z,37.00
2018-11-25T20:00:14.179Z,36.00
2018-11-25T20:02:42.627Z,34.87
2018-11-25T20:05:13.869Z,35.33
2018-11-25T20:07:43.309Z,34.27
2018-11-25T20:10:13.654Z,34.63
2018-11-25T20:12:43.912Z,36.33
2018-11-25T20:15:13.490Z,34.37
2018-11-25T20:17:42.009Z,37.20
2018-11-25T20:20:14.695Z,35.13
2018-11-25T20:22:44.175Z,33.67
2018-11-25T20:25:13.526Z,34.57
2018-11-25T20:27:47.167Z,33.57
2018-11-25T20:30:18.986Z,35.60
2018-11-25T20:32:52.881Z,37.13
2018-11-25T20:35:21.368Z,36.53
2018-11-25T20:37:55.230Z,34.33
2018-11-25T20:40:23.749Z,35.17
2018-11-25T20:42:52.385Z,35.03
2018-11-25T20:45:27.226Z,36.77
2018-11-25T20:47:57.118Z,34.47
2018-11-25T20:50:25.571Z,34.40
2018-11-25T20:52:59.287Z,34.73
2018-11-25T20:55:27.730Z,33.20
2018-11-25T20:57:56.213Z,33.93
2018-11-25T21:00:26.593Z,33.00
2018-11-25T21:02:55.026Z,34.50
2018-11-25T21:05:23.962Z,34.80
2018-11-25T21:07:51.959Z,30.60
2018-11-25T21:10:20.749Z,34.17
2018-11-25T21:12:53.276Z,36.77
2018-11-25T21:15:21.735Z,33.53
2018-11-25T21:17:50.190Z,35.00
2018-11-25T21:20:20.148Z,34.83
2018-11-25T21:22:48.622Z,32.77
2018-11-25T21:25:19.230Z,33.67
2018-11-25T21:27:47.731Z,33.67
2018-11-25T21:30:21.207Z,33.80
2018-11-25T21:32:51.764Z,32.83
2018-11-25T21:35:20.892Z,30.43
2018-11-25T21:37:49.359Z,33.13
2018-11-25T21:40:19.895Z,32.10
2018-11-25T21:42:48.369Z,34.33
2018-11-25T21:45:17.987Z,31.30
2018-11-25T21:47:47.156Z,31.17
2018-11-25T21:50:18.613Z,30.77
2018-11-25T21:52:47.060Z,32.80
2018-11-25T21:55:16.472Z,32.53
2018-11-25T21:57:44.966Z,30.97
2018-11-25T22:00:15.076Z,32.33
2018-11-25T22:02:43.555Z,28.93
2018-11-25T22:05:12.539Z,29.50
2018-11-25T22:07:41.019Z,28.73
2018-11-25T22:10:10.730Z,28.40
2018-11-25T22:12:39.973Z,26.97
2018-11-25T22:15:14.305Z,26.43
2018-11-25T22:17:42.850Z,26.50
2018-11-25T22:20:12.486Z,26.00
2018-11-25T22:22:41.034Z,24.13
2018-11-25T22:25:10.800Z,27.10
2018-11-25T22:27:40.043Z,23.10
2018-11-25T22:30:13.952Z,24.67
2018-11-25T22:32:42.476Z,26.53
2018-11-25T22:35:13.742Z,27.00
2018-11-25T22:37:43.283Z,26.20
2018-11-25T22:40:12.864Z,26.23
2018-11-25T22:42:43.046Z,27.03
2018-11-25T22:45:12.850Z,27.13
2018-11-25T22:47:41.416Z,25.43
2018-11-25T22:50:11.838Z,27.70
2018-11-25T22:52:40.321Z,24.57
2018-11-25T22:55:10.915Z,25.03
2018-11-25T22:57:39.382Z,24.20
2018-11-25T23:00:20.868Z,23.73
2018-11-25T23:02:49.368Z,23.07
2018-11-25T23:05:28.947Z,22.73
2018-11-25T23:07:57.440Z,21.83
2018-11-25T23:10:32.428Z,23.00
2018-11-25T23:13:00.992Z,22.80
2018-11-25T23:15:29.556Z,22.50
2018-11-25T23:17:58.055Z,21.73
2018-11-25T23:20:26.640Z,24.17
2018-11-25T23:22:55.121Z,22.67
2018-11-25T23:25:23.653Z,23.20
2018-11-25T23:27:52.110Z,23.00
2018-11-25T23:30:20.606Z,24.53
2018-11-25T23:32:49.135Z,23.57
2018-11-25T23:35:20.243Z,23.27
2018-11-25T23:37:48.707Z,23.07
2018-11-25T23:40:17.171Z,23.20
2018-11-25T23:42:45.691Z,24.77
2018-11-25T23:45:15.584Z,22.83
2018-11-25T23:47:44.161Z,23.53
2018-11-25T23:50:13.772Z,24.67
2018-11-25T23:52:43.244Z,22.80
2018-11-25T23:55:12.991Z,22.90
2018-11-25T23:57:41.658Z,22.90
